Lynwood, Illinois
Current Conditions -  °F | °C
As of 10:35 AM on Saturday 22 Nov 2014 (Local Time) from KIGQ Reporting Station
Overcast Overcast  
Wind Chill: 36°   Ceiling: 1600
Heat Index: 41°   Visibility: 10mi
Dew Point: 38°   Wind: 9mph
Humidity: 89%   Direction: 220°SW
Pressure: 30.01"   Gusts: NA
Location:  41.5054°N, 87.5907°W
Report Text: KIGQ 221635Z AUTO 22008KT 10SM OVC016 05/04 A3001 RMK AO2 T00520036
Loading
Personal Weather Stations






























Interactive Weather Map New forecast layout! Learn more

10-Day Weather Forecast

Advertisements
Track Severe Weather on mobile